sensor_id;sensor_type;location;lat;lon;timestamp;P1;durP1;ratioP1;P2;durP2;ratioP2
19643;SDS011;9970;-36.854;174.870;2023-02-13T00:00:45;5.90;;;5.90;;
19643;SDS011;9970;-36.854;174.870;2023-02-13T00:03:19;6.40;;;6.40;;
19643;SDS011;9970;-36.854;174.870;2023-02-13T00:05:52;6.10;;;6.10;;
19643;SDS011;9970;-36.854;174.870;2023-02-13T00:08:25;6.00;;;6.00;;
19643;SDS011;9970;-36.854;174.870;2023-02-13T00:10:57;6.10;;;6.10;;
19643;SDS011;9970;-36.854;174.870;2023-02-13T00:13:31;5.90;;;5.90;;
19643;SDS011;9970;-36.854;174.870;2023-02-13T00:16:08;6.00;;;6.00;;
19643;SDS011;9970;-36.854;174.870;2023-02-13T00:18:41;5.90;;;5.90;;
19643;SDS011;9970;-36.854;174.870;2023-02-13T00:21:14;6.00;;;6.00;;
19643;SDS011;9970;-36.854;174.870;2023-02-13T00:23:47;5.60;;;5.60;;
19643;SDS011;9970;-36.854;174.870;2023-02-13T00:26:19;6.10;;;6.10;;
19643;SDS011;9970;-36.854;174.870;2023-02-13T00:28:52;5.90;;;5.90;;
19643;SDS011;9970;-36.854;174.870;2023-02-13T00:31:26;5.93;;;5.93;;
19643;SDS011;9970;-36.854;174.870;2023-02-13T00:33:59;6.10;;;6.10;;
19643;SDS011;9970;-36.854;174.870;2023-02-13T00:36:32;6.03;;;6.03;;
19643;SDS011;9970;-36.854;174.870;2023-02-13T00:39:05;5.90;;;5.90;;
19643;SDS011;9970;-36.854;174.870;2023-02-13T00:41:39;5.90;;;5.90;;
19643;SDS011;9970;-36.854;174.870;2023-02-13T00:44:12;5.80;;;5.80;;
19643;SDS011;9970;-36.854;174.870;2023-02-13T00:46:45;5.80;;;5.80;;
19643;SDS011;9970;-36.854;174.870;2023-02-13T00:49:18;5.80;;;5.80;;
19643;SDS011;9970;-36.854;174.870;2023-02-13T00:51:55;6.10;;;6.10;;
19643;SDS011;9970;-36.854;174.870;2023-02-13T00:54:29;5.70;;;5.70;;
19643;SDS011;9970;-36.854;174.870;2023-02-13T00:57:01;5.90;;;5.90;;
19643;SDS011;9970;-36.854;174.870;2023-02-13T00:59:34;5.80;;;5.80;;
19643;SDS011;9970;-36.854;174.870;2023-02-13T01:02:07;5.80;;;5.80;;
19643;SDS011;9970;-36.854;174.870;2023-02-13T01:04:40;5.60;;;5.60;;
19643;SDS011;9970;-36.854;174.870;2023-02-13T01:07:13;5.60;;;5.60;;
19643;SDS011;9970;-36.854;174.870;2023-02-13T01:09:46;5.33;;;5.33;;
19643;SDS011;9970;-36.854;174.870;2023-02-13T01:12:19;5.60;;;5.60;;
19643;SDS011;9970;-36.854;174.870;2023-02-13T01:14:52;5.87;;;5.87;;
19643;SDS011;9970;-36.854;174.870;2023-02-13T01:17:24;5.53;;;5.53;;
19643;SDS011;9970;-36.854;174.870;2023-02-13T01:19:57;5.40;;;5.40;;
19643;SDS011;9970;-36.854;174.870;2023-02-13T01:22:31;5.30;;;5.30;;
19643;SDS011;9970;-36.854;174.870;2023-02-13T01:25:07;5.63;;;5.63;;
19643;SDS011;9970;-36.854;174.870;2023-02-13T01:27:40;5.60;;;5.60;;
19643;SDS011;9970;-36.854;174.870;2023-02-13T01:30:14;5.50;;;5.50;;
19643;SDS011;9970;-36.854;174.870;2023-02-13T01:32:48;5.50;;;5.50;;
19643;SDS011;9970;-36.854;174.870;2023-02-13T01:35:21;5.80;;;5.80;;
19643;SDS011;9970;-36.854;174.870;2023-02-13T01:37:54;5.50;;;5.50;;
19643;SDS011;9970;-36.854;174.870;2023-02-13T01:40:26;5.50;;;5.50;;
19643;SDS011;9970;-36.854;174.870;2023-02-13T01:43:00;5.50;;;5.50;;
19643;SDS011;9970;-36.854;174.870;2023-02-13T01:45:33;5.40;;;5.40;;
19643;SDS011;9970;-36.854;174.870;2023-02-13T01:48:06;5.50;;;5.50;;
19643;SDS011;9970;-36.854;174.870;2023-02-13T01:50:51;5.60;;;5.60;;
19643;SDS011;9970;-36.854;174.870;2023-02-13T01:53:26;5.60;;;5.60;;
19643;SDS011;9970;-36.854;174.870;2023-02-13T01:58:53;5.60;;;5.60;;
19643;SDS011;9970;-36.854;174.870;2023-02-13T02:01:28;5.70;;;5.70;;
19643;SDS011;9970;-36.854;174.870;2023-02-13T02:04:12;6.10;;;6.10;;
19643;SDS011;9970;-36.854;174.870;2023-02-13T02:06:47;6.10;;;6.10;;
19643;SDS011;9970;-36.854;174.870;2023-02-13T02:09:22;6.20;;;6.20;;
19643;SDS011;9970;-36.854;174.870;2023-02-13T02:14:33;6.20;;;6.20;;
19643;SDS011;9970;-36.854;174.870;2023-02-13T02:17:07;6.10;;;6.10;;
19643;SDS011;9970;-36.854;174.870;2023-02-13T02:26:03;6.10;;;6.10;;
19643;SDS011;9970;-36.854;174.870;2023-02-13T02:34:43;6.30;;;6.30;;
19643;SDS011;9970;-36.854;174.870;2023-02-13T02:43:35;6.10;;;6.10;;
19643;SDS011;9970;-36.854;174.870;2023-02-13T02:49:02;6.30;;;6.30;;
19643;SDS011;9970;-36.854;174.870;2023-02-13T02:54:43;6.30;;;6.30;;
19643;SDS011;9970;-36.854;174.870;2023-02-13T02:57:28;6.30;;;6.30;;
19643;SDS011;9970;-36.854;174.870;2023-02-13T03:00:03;6.50;;;6.50;;
19643;SDS011;9970;-36.854;174.870;2023-02-13T03:02:54;6.37;;;6.37;;
19643;SDS011;9970;-36.854;174.870;2023-02-13T03:05:44;5.90;;;5.90;;
19643;SDS011;9970;-36.854;174.870;2023-02-13T03:08:36;6.20;;;6.20;;
19643;SDS011;9970;-36.854;174.870;2023-02-13T03:11:31;6.13;;;6.13;;
19643;SDS011;9970;-36.854;174.870;2023-02-13T03:14:21;6.30;;;6.30;;
19643;SDS011;9970;-36.854;174.870;2023-02-13T03:16:56;6.10;;;6.10;;
19643;SDS011;9970;-36.854;174.870;2023-02-13T03:19:54;6.10;;;6.10;;
19643;SDS011;9970;-36.854;174.870;2023-02-13T03:23:10;6.70;;;6.70;;
19643;SDS011;9970;-36.854;174.870;2023-02-13T03:26:17;6.40;;;6.40;;
19643;SDS011;9970;-36.854;174.870;2023-02-13T03:34:12;6.00;;;6.00;;
19643;SDS011;9970;-36.854;174.870;2023-02-13T03:37:00;5.70;;;5.70;;
19643;SDS011;9970;-36.854;174.870;2023-02-13T03:43:02;5.40;;;5.40;;
19643;SDS011;9970;-36.854;174.870;2023-02-13T03:45:17;5.20;;;5.20;;
19643;SDS011;9970;-36.854;174.870;2023-02-13T03:48:09;5.20;;;5.20;;
19643;SDS011;9970;-36.854;174.870;2023-02-13T03:50:57;5.40;;;5.40;;
19643;SDS011;9970;-36.854;174.870;2023-02-13T03:53:32;5.70;;;5.70;;
19643;SDS011;9970;-36.854;174.870;2023-02-13T03:56:06;5.50;;;5.50;;
19643;SDS011;9970;-36.854;174.870;2023-02-13T03:58:58;5.80;;;5.80;;
19643;SDS011;9970;-36.854;174.870;2023-02-13T04:01:50;5.40;;;5.40;;
19643;SDS011;9970;-36.854;174.870;2023-02-13T04:04:29;5.20;;;5.20;;
19643;SDS011;9970;-36.854;174.870;2023-02-13T04:07:16;5.20;;;5.20;;
19643;SDS011;9970;-36.854;174.870;2023-02-13T04:10:05;5.07;;;5.07;;
19643;SDS011;9970;-36.854;174.870;2023-02-13T04:15:11;5.00;;;5.00;;
19643;SDS011;9970;-36.854;174.870;2023-02-13T04:17:46;5.07;;;5.07;;
19643;SDS011;9970;-36.854;174.870;2023-02-13T04:20:36;4.90;;;4.90;;
19643;SDS011;9970;-36.854;174.870;2023-02-13T04:23:10;5.10;;;5.10;;
19643;SDS011;9970;-36.854;174.870;2023-02-13T04:25:44;5.00;;;5.00;;
19643;SDS011;9970;-36.854;174.870;2023-02-13T04:28:18;3.93;;;3.93;;
19643;SDS011;9970;-36.854;174.870;2023-02-13T04:30:51;4.20;;;4.20;;
19643;SDS011;9970;-36.854;174.870;2023-02-13T04:33:25;4.10;;;4.10;;
19643;SDS011;9970;-36.854;174.870;2023-02-13T04:35:58;4.20;;;4.20;;
19643;SDS011;9970;-36.854;174.870;2023-02-13T04:38:31;4.50;;;4.50;;
19643;SDS011;9970;-36.854;174.870;2023-02-13T04:41:04;4.30;;;4.30;;
19643;SDS011;9970;-36.854;174.870;2023-02-13T04:43:37;4.10;;;4.10;;
19643;SDS011;9970;-36.854;174.870;2023-02-13T04:46:10;4.17;;;4.17;;
19643;SDS011;9970;-36.854;174.870;2023-02-13T04:48:46;4.30;;;4.30;;
19643;SDS011;9970;-36.854;174.870;2023-02-13T04:51:19;4.10;;;4.10;;
19643;SDS011;9970;-36.854;174.870;2023-02-13T04:53:51;4.00;;;4.00;;
19643;SDS011;9970;-36.854;174.870;2023-02-13T04:56:24;4.10;;;4.10;;
19643;SDS011;9970;-36.854;174.870;2023-02-13T04:58:57;4.27;;;4.27;;
19643;SDS011;9970;-36.854;174.870;2023-02-13T05:01:30;4.00;;;4.00;;
19643;SDS011;9970;-36.854;174.870;2023-02-13T05:04:03;3.90;;;3.90;;
19643;SDS011;9970;-36.854;174.870;2023-02-13T05:06:36;3.70;;;3.70;;
19643;SDS011;9970;-36.854;174.870;2023-02-13T05:09:09;3.70;;;3.70;;
19643;SDS011;9970;-36.854;174.870;2023-02-13T05:11:42;3.80;;;3.80;;
19643;SDS011;9970;-36.854;174.870;2023-02-13T05:14:15;3.80;;;3.80;;
19643;SDS011;9970;-36.854;174.870;2023-02-13T05:16:48;3.87;;;3.87;;
19643;SDS011;9970;-36.854;174.870;2023-02-13T05:19:21;3.80;;;3.80;;
19643;SDS011;9970;-36.854;174.870;2023-02-13T05:21:54;3.60;;;3.60;;
19643;SDS011;9970;-36.854;174.870;2023-02-13T05:24:44;3.90;;;3.90;;
19643;SDS011;9970;-36.854;174.870;2023-02-13T05:27:18;3.70;;;3.70;;
19643;SDS011;9970;-36.854;174.870;2023-02-13T05:29:50;3.90;;;3.90;;
19643;SDS011;9970;-36.854;174.870;2023-02-13T05:32:23;3.90;;;3.90;;
19643;SDS011;9970;-36.854;174.870;2023-02-13T05:34:56;3.90;;;3.90;;
19643;SDS011;9970;-36.854;174.870;2023-02-13T05:37:31;3.87;;;3.87;;
19643;SDS011;9970;-36.854;174.870;2023-02-13T05:40:04;3.70;;;3.70;;
19643;SDS011;9970;-36.854;174.870;2023-02-13T05:42:37;3.90;;;3.90;;
19643;SDS011;9970;-36.854;174.870;2023-02-13T05:45:10;4.10;;;4.10;;
19643;SDS011;9970;-36.854;174.870;2023-02-13T05:47:44;4.00;;;4.00;;
19643;SDS011;9970;-36.854;174.870;2023-02-13T05:50:17;4.10;;;4.10;;
19643;SDS011;9970;-36.854;174.870;2023-02-13T05:52:55;3.90;;;3.90;;
19643;SDS011;9970;-36.854;174.870;2023-02-13T05:55:28;3.90;;;3.90;;
19643;SDS011;9970;-36.854;174.870;2023-02-13T05:58:00;4.00;;;4.00;;
19643;SDS011;9970;-36.854;174.870;2023-02-13T06:00:33;4.10;;;4.10;;
19643;SDS011;9970;-36.854;174.870;2023-02-13T06:03:06;3.67;;;3.67;;
19643;SDS011;9970;-36.854;174.870;2023-02-13T06:05:39;3.70;;;3.70;;
19643;SDS011;9970;-36.854;174.870;2023-02-13T06:08:12;3.90;;;3.90;;
19643;SDS011;9970;-36.854;174.870;2023-02-13T06:10:51;3.80;;;3.80;;
19643;SDS011;9970;-36.854;174.870;2023-02-13T06:13:19;3.80;;;3.80;;
19643;SDS011;9970;-36.854;174.870;2023-02-13T06:15:53;3.60;;;3.60;;
19643;SDS011;9970;-36.854;174.870;2023-02-13T06:18:26;3.80;;;3.80;;
19643;SDS011;9970;-36.854;174.870;2023-02-13T06:21:01;3.87;;;3.87;;
19643;SDS011;9970;-36.854;174.870;2023-02-13T06:23:35;3.60;;;3.60;;
19643;SDS011;9970;-36.854;174.870;2023-02-13T06:26:08;3.70;;;3.70;;
19643;SDS011;9970;-36.854;174.870;2023-02-13T06:28:41;3.70;;;3.70;;
19643;SDS011;9970;-36.854;174.870;2023-02-13T06:31:14;3.80;;;3.80;;
19643;SDS011;9970;-36.854;174.870;2023-02-13T06:33:52;3.80;;;3.80;;
19643;SDS011;9970;-36.854;174.870;2023-02-13T06:36:25;3.90;;;3.90;;
19643;SDS011;9970;-36.854;174.870;2023-02-13T06:38:58;3.80;;;3.80;;
19643;SDS011;9970;-36.854;174.870;2023-02-13T06:41:30;3.90;;;3.90;;
19643;SDS011;9970;-36.854;174.870;2023-02-13T06:44:04;3.70;;;3.70;;
19643;SDS011;9970;-36.854;174.870;2023-02-13T06:46:37;3.60;;;3.60;;
19643;SDS011;9970;-36.854;174.870;2023-02-13T06:49:10;3.70;;;3.70;;
19643;SDS011;9970;-36.854;174.870;2023-02-13T06:51:47;3.53;;;3.53;;
19643;SDS011;9970;-36.854;174.870;2023-02-13T06:54:20;3.60;;;3.60;;
19643;SDS011;9970;-36.854;174.870;2023-02-13T06:56:54;3.50;;;3.50;;
19643;SDS011;9970;-36.854;174.870;2023-02-13T06:59:27;3.40;;;3.40;;
19643;SDS011;9970;-36.854;174.870;2023-02-13T07:02:00;3.60;;;3.60;;
19643;SDS011;9970;-36.854;174.870;2023-02-13T07:04:33;3.40;;;3.40;;
19643;SDS011;9970;-36.854;174.870;2023-02-13T07:07:06;3.50;;;3.50;;
19643;SDS011;9970;-36.854;174.870;2023-02-13T07:09:39;3.37;;;3.37;;
19643;SDS011;9970;-36.854;174.870;2023-02-13T07:12:13;3.80;;;3.80;;
19643;SDS011;9970;-36.854;174.870;2023-02-13T07:14:46;3.70;;;3.70;;
19643;SDS011;9970;-36.854;174.870;2023-02-13T07:17:19;3.80;;;3.80;;
19643;SDS011;9970;-36.854;174.870;2023-02-13T07:19:52;4.00;;;4.00;;
19643;SDS011;9970;-36.854;174.870;2023-02-13T07:22:24;4.00;;;4.00;;
19643;SDS011;9970;-36.854;174.870;2023-02-13T07:24:57;4.00;;;4.00;;
19643;SDS011;9970;-36.854;174.870;2023-02-13T07:27:30;3.93;;;3.93;;
19643;SDS011;9970;-36.854;174.870;2023-02-13T07:30:04;4.20;;;4.20;;
19643;SDS011;9970;-36.854;174.870;2023-02-13T07:32:37;4.10;;;4.10;;
19643;SDS011;9970;-36.854;174.870;2023-02-13T07:35:10;4.10;;;4.10;;
19643;SDS011;9970;-36.854;174.870;2023-02-13T07:37:43;4.20;;;4.20;;
19643;SDS011;9970;-36.854;174.870;2023-02-13T07:40:16;4.10;;;4.10;;
19643;SDS011;9970;-36.854;174.870;2023-02-13T07:42:49;4.00;;;4.00;;
19643;SDS011;9970;-36.854;174.870;2023-02-13T07:45:22;3.90;;;3.90;;
19643;SDS011;9970;-36.854;174.870;2023-02-13T07:47:55;4.00;;;4.00;;
19643;SDS011;9970;-36.854;174.870;2023-02-13T07:50:28;4.10;;;4.10;;
19643;SDS011;9970;-36.854;174.870;2023-02-13T07:53:01;3.80;;;3.80;;
19643;SDS011;9970;-36.854;174.870;2023-02-13T07:55:34;4.10;;;4.10;;
19643;SDS011;9970;-36.854;174.870;2023-02-13T07:58:08;4.00;;;4.00;;
19643;SDS011;9970;-36.854;174.870;2023-02-13T08:00:41;4.17;;;4.17;;
19643;SDS011;9970;-36.854;174.870;2023-02-13T08:03:14;4.20;;;4.20;;
19643;SDS011;9970;-36.854;174.870;2023-02-13T08:05:47;4.10;;;4.10;;
19643;SDS011;9970;-36.854;174.870;2023-02-13T08:08:20;4.00;;;4.00;;
19643;SDS011;9970;-36.854;174.870;2023-02-13T08:10:52;4.00;;;4.00;;
19643;SDS011;9970;-36.854;174.870;2023-02-13T08:13:32;4.10;;;4.10;;
19643;SDS011;9970;-36.854;174.870;2023-02-13T08:16:06;4.00;;;4.00;;
19643;SDS011;9970;-36.854;174.870;2023-02-13T08:18:39;4.10;;;4.10;;
19643;SDS011;9970;-36.854;174.870;2023-02-13T08:21:12;4.30;;;4.30;;
19643;SDS011;9970;-36.854;174.870;2023-02-13T08:23:45;4.10;;;4.10;;
19643;SDS011;9970;-36.854;174.870;2023-02-13T08:26:19;4.10;;;4.10;;
19643;SDS011;9970;-36.854;174.870;2023-02-13T08:28:53;4.00;;;4.00;;
19643;SDS011;9970;-36.854;174.870;2023-02-13T08:31:26;4.20;;;4.20;;
19643;SDS011;9970;-36.854;174.870;2023-02-13T08:33:59;4.20;;;4.20;;
19643;SDS011;9970;-36.854;174.870;2023-02-13T08:36:32;4.20;;;4.20;;
19643;SDS011;9970;-36.854;174.870;2023-02-13T08:39:05;4.27;;;4.27;;
19643;SDS011;9970;-36.854;174.870;2023-02-13T08:41:38;4.30;;;4.30;;
19643;SDS011;9970;-36.854;174.870;2023-02-13T08:44:11;4.20;;;4.20;;
19643;SDS011;9970;-36.854;174.870;2023-02-13T08:46:44;4.60;;;4.60;;
19643;SDS011;9970;-36.854;174.870;2023-02-13T08:49:17;4.40;;;4.40;;
19643;SDS011;9970;-36.854;174.870;2023-02-13T08:51:52;4.20;;;4.20;;
19643;SDS011;9970;-36.854;174.870;2023-02-13T08:54:25;4.20;;;4.20;;
19643;SDS011;9970;-36.854;174.870;2023-02-13T08:56:58;4.20;;;4.20;;
19643;SDS011;9970;-36.854;174.870;2023-02-13T08:59:31;4.30;;;4.30;;
19643;SDS011;9970;-36.854;174.870;2023-02-13T09:02:04;4.30;;;4.30;;
19643;SDS011;9970;-36.854;174.870;2023-02-13T09:04:36;4.20;;;4.20;;
19643;SDS011;9970;-36.854;174.870;2023-02-13T09:07:10;4.30;;;4.30;;
19643;SDS011;9970;-36.854;174.870;2023-02-13T09:09:43;4.50;;;4.50;;
19643;SDS011;9970;-36.854;174.870;2023-02-13T09:12:15;4.20;;;4.20;;
19643;SDS011;9970;-36.854;174.870;2023-02-13T09:14:48;4.30;;;4.30;;
19643;SDS011;9970;-36.854;174.870;2023-02-13T09:17:21;4.20;;;4.20;;
19643;SDS011;9970;-36.854;174.870;2023-02-13T09:19:54;4.30;;;4.30;;
19643;SDS011;9970;-36.854;174.870;2023-02-13T09:22:27;4.40;;;4.40;;
19643;SDS011;9970;-36.854;174.870;2023-02-13T09:25:00;4.27;;;4.27;;
19643;SDS011;9970;-36.854;174.870;2023-02-13T09:27:33;4.40;;;4.40;;
19643;SDS011;9970;-36.854;174.870;2023-02-13T09:30:08;4.50;;;4.50;;
19643;SDS011;9970;-36.854;174.870;2023-02-13T09:32:42;4.40;;;4.40;;
19643;SDS011;9970;-36.854;174.870;2023-02-13T09:35:17;4.50;;;4.50;;
19643;SDS011;9970;-36.854;174.870;2023-02-13T09:37:54;4.70;;;4.70;;
19643;SDS011;9970;-36.854;174.870;2023-02-13T09:43:09;4.60;;;4.60;;
19643;SDS011;9970;-36.854;174.870;2023-02-13T09:45:37;4.70;;;4.70;;
19643;SDS011;9970;-36.854;174.870;2023-02-13T09:48:17;4.60;;;4.60;;
19643;SDS011;9970;-36.854;174.870;2023-02-13T09:50:46;4.70;;;4.70;;
19643;SDS011;9970;-36.854;174.870;2023-02-13T09:53:22;4.60;;;4.60;;
19643;SDS011;9970;-36.854;174.870;2023-02-13T09:59:33;4.50;;;4.50;;
19643;SDS011;9970;-36.854;174.870;2023-02-13T10:01:34;4.60;;;4.60;;
19643;SDS011;9970;-36.854;174.870;2023-02-13T10:04:28;4.60;;;4.60;;
19643;SDS011;9970;-36.854;174.870;2023-02-13T10:07:24;4.90;;;4.90;;
19643;SDS011;9970;-36.854;174.870;2023-02-13T10:10:07;4.63;;;4.63;;
19643;SDS011;9970;-36.854;174.870;2023-02-13T10:12:45;4.80;;;4.80;;
19643;SDS011;9970;-36.854;174.870;2023-02-13T10:18:11;5.20;;;5.20;;
19643;SDS011;9970;-36.854;174.870;2023-02-13T10:20:47;4.93;;;4.93;;
19643;SDS011;9970;-36.854;174.870;2023-02-13T10:23:26;4.80;;;4.80;;
19643;SDS011;9970;-36.854;174.870;2023-02-13T10:26:21;4.90;;;4.90;;
19643;SDS011;9970;-36.854;174.870;2023-02-13T10:29:03;5.23;;;5.23;;
19643;SDS011;9970;-36.854;174.870;2023-02-13T10:31:55;5.30;;;5.30;;
19643;SDS011;9970;-36.854;174.870;2023-02-13T10:34:31;5.40;;;5.40;;
19643;SDS011;9970;-36.854;174.870;2023-02-13T10:37:08;4.70;;;4.70;;
19643;SDS011;9970;-36.854;174.870;2023-02-13T10:39:42;4.90;;;4.90;;
19643;SDS011;9970;-36.854;174.870;2023-02-13T10:42:22;4.90;;;4.90;;
19643;SDS011;9970;-36.854;174.870;2023-02-13T10:50:55;4.80;;;4.80;;
19643;SDS011;9970;-36.854;174.870;2023-02-13T10:56:19;4.60;;;4.60;;
19643;SDS011;9970;-36.854;174.870;2023-02-13T11:02:02;4.80;;;4.80;;
19643;SDS011;9970;-36.854;174.870;2023-02-13T11:04:47;4.87;;;4.87;;
19643;SDS011;9970;-36.854;174.870;2023-02-13T11:07:17;4.80;;;4.80;;
19643;SDS011;9970;-36.854;174.870;2023-02-13T11:09:50;5.10;;;5.10;;
19643;SDS011;9970;-36.854;174.870;2023-02-13T11:12:33;5.00;;;5.00;;
19643;SDS011;9970;-36.854;174.870;2023-02-13T11:15:04;4.77;;;4.77;;
19643;SDS011;9970;-36.854;174.870;2023-02-13T11:17:38;4.90;;;4.90;;
19643;SDS011;9970;-36.854;174.870;2023-02-13T11:20:26;5.00;;;5.00;;
19643;SDS011;9970;-36.854;174.870;2023-02-13T11:23:16;4.70;;;4.70;;
19643;SDS011;9970;-36.854;174.870;2023-02-13T11:26:13;4.70;;;4.70;;
19643;SDS011;9970;-36.854;174.870;2023-02-13T11:28:47;4.50;;;4.50;;
19643;SDS011;9970;-36.854;174.870;2023-02-13T11:31:32;4.40;;;4.40;;
19643;SDS011;9970;-36.854;174.870;2023-02-13T11:39:48;4.80;;;4.80;;
19643;SDS011;9970;-36.854;174.870;2023-02-13T11:42:31;4.80;;;4.80;;
19643;SDS011;9970;-36.854;174.870;2023-02-13T11:45:19;4.80;;;4.80;;
19643;SDS011;9970;-36.854;174.870;2023-02-13T11:47:59;4.60;;;4.60;;
19643;SDS011;9970;-36.854;174.870;2023-02-13T11:50:33;4.50;;;4.50;;
19643;SDS011;9970;-36.854;174.870;2023-02-13T11:53:18;4.60;;;4.60;;
19643;SDS011;9970;-36.854;174.870;2023-02-13T11:56:06;5.00;;;5.00;;
19643;SDS011;9970;-36.854;174.870;2023-02-13T11:58:35;4.50;;;4.50;;
19643;SDS011;9970;-36.854;174.870;2023-02-13T12:04:06;4.60;;;4.60;;
19643;SDS011;9970;-36.854;174.870;2023-02-13T12:06:40;4.80;;;4.80;;
19643;SDS011;9970;-36.854;174.870;2023-02-13T12:09:30;4.57;;;4.57;;
19643;SDS011;9970;-36.854;174.870;2023-02-13T12:12:04;4.70;;;4.70;;
19643;SDS011;9970;-36.854;174.870;2023-02-13T12:14:39;4.87;;;4.87;;
19643;SDS011;9970;-36.854;174.870;2023-02-13T12:17:20;4.80;;;4.80;;
19643;SDS011;9970;-36.854;174.870;2023-02-13T12:19:55;4.70;;;4.70;;
19643;SDS011;9970;-36.854;174.870;2023-02-13T12:22:29;4.50;;;4.50;;
19643;SDS011;9970;-36.854;174.870;2023-02-13T12:28:16;4.90;;;4.90;;
19643;SDS011;9970;-36.854;174.870;2023-02-13T12:31:05;4.80;;;4.80;;
19643;SDS011;9970;-36.854;174.870;2023-02-13T12:33:51;4.90;;;4.90;;
19643;SDS011;9970;-36.854;174.870;2023-02-13T12:39:33;5.10;;;5.10;;
19643;SDS011;9970;-36.854;174.870;2023-02-13T12:45:12;5.00;;;5.00;;
19643;SDS011;9970;-36.854;174.870;2023-02-13T12:51:00;4.80;;;4.80;;
19643;SDS011;9970;-36.854;174.870;2023-02-13T12:53:44;5.20;;;5.20;;
19643;SDS011;9970;-36.854;174.870;2023-02-13T12:59:42;5.17;;;5.17;;
19643;SDS011;9970;-36.854;174.870;2023-02-13T13:05:06;4.90;;;4.90;;
19643;SDS011;9970;-36.854;174.870;2023-02-13T13:11:41;4.50;;;4.50;;
19643;SDS011;9970;-36.854;174.870;2023-02-13T13:13:22;4.70;;;4.70;;
19643;SDS011;9970;-36.854;174.870;2023-02-13T13:16:08;4.60;;;4.60;;
19643;SDS011;9970;-36.854;174.870;2023-02-13T13:18:57;4.93;;;4.93;;
19643;SDS011;9970;-36.854;174.870;2023-02-13T13:21:58;4.70;;;4.70;;
19643;SDS011;9970;-36.854;174.870;2023-02-13T13:27:21;4.93;;;4.93;;
19643;SDS011;9970;-36.854;174.870;2023-02-13T13:30:00;4.70;;;4.70;;
19643;SDS011;9970;-36.854;174.870;2023-02-13T13:32:37;5.20;;;5.20;;
19643;SDS011;9970;-36.854;174.870;2023-02-13T13:35:12;5.20;;;5.20;;
19643;SDS011;9970;-36.854;174.870;2023-02-13T13:43:19;5.00;;;5.00;;
19643;SDS011;9970;-36.854;174.870;2023-02-13T13:51:38;4.90;;;4.90;;
19643;SDS011;9970;-36.854;174.870;2023-02-13T14:07:54;4.80;;;4.80;;
19643;SDS011;9970;-36.854;174.870;2023-02-13T14:13:05;4.40;;;4.40;;
19643;SDS011;9970;-36.854;174.870;2023-02-13T14:20:52;4.90;;;4.90;;
19643;SDS011;9970;-36.854;174.870;2023-02-13T14:28:57;4.70;;;4.70;;
19643;SDS011;9970;-36.854;174.870;2023-02-13T14:36:48;4.87;;;4.87;;
19643;SDS011;9970;-36.854;174.870;2023-02-13T14:39:33;4.50;;;4.50;;
19643;SDS011;9970;-36.854;174.870;2023-02-13T14:42:28;4.50;;;4.50;;
19643;SDS011;9970;-36.854;174.870;2023-02-13T14:44:58;4.50;;;4.50;;
19643;SDS011;9970;-36.854;174.870;2023-02-13T14:47:41;4.43;;;4.43;;
19643;SDS011;9970;-36.854;174.870;2023-02-13T14:50:21;4.50;;;4.50;;
19643;SDS011;9970;-36.854;174.870;2023-02-13T14:52:50;4.70;;;4.70;;
19643;SDS011;9970;-36.854;174.870;2023-02-13T14:55:33;4.50;;;4.50;;
19643;SDS011;9970;-36.854;174.870;2023-02-13T15:03:41;4.80;;;4.80;;
19643;SDS011;9970;-36.854;174.870;2023-02-13T15:06:26;4.80;;;4.80;;
19643;SDS011;9970;-36.854;174.870;2023-02-13T15:08:55;4.70;;;4.70;;
19643;SDS011;9970;-36.854;174.870;2023-02-13T15:11:40;4.50;;;4.50;;
19643;SDS011;9970;-36.854;174.870;2023-02-13T15:19:46;4.90;;;4.90;;
19643;SDS011;9970;-36.854;174.870;2023-02-13T15:22:30;4.97;;;4.97;;
19643;SDS011;9970;-36.854;174.870;2023-02-13T15:25:03;5.00;;;5.00;;
19643;SDS011;9970;-36.854;174.870;2023-02-13T15:27:41;4.83;;;4.83;;
19643;SDS011;9970;-36.854;174.870;2023-02-13T15:33:14;4.67;;;4.67;;
19643;SDS011;9970;-36.854;174.870;2023-02-13T15:35:33;4.87;;;4.87;;
19643;SDS011;9970;-36.854;174.870;2023-02-13T15:38:19;4.60;;;4.60;;
19643;SDS011;9970;-36.854;174.870;2023-02-13T15:41:05;4.70;;;4.70;;
19643;SDS011;9970;-36.854;174.870;2023-02-13T15:43:42;4.53;;;4.53;;
19643;SDS011;9970;-36.854;174.870;2023-02-13T15:46:26;4.40;;;4.40;;
19643;SDS011;9970;-36.854;174.870;2023-02-13T15:49:16;4.80;;;4.80;;
19643;SDS011;9970;-36.854;174.870;2023-02-13T15:51:37;4.70;;;4.70;;
19643;SDS011;9970;-36.854;174.870;2023-02-13T15:54:26;4.73;;;4.73;;
19643;SDS011;9970;-36.854;174.870;2023-02-13T15:57:03;4.30;;;4.30;;
19643;SDS011;9970;-36.854;174.870;2023-02-13T15:59:36;4.60;;;4.60;;
19643;SDS011;9970;-36.854;174.870;2023-02-13T16:02:24;4.60;;;4.60;;
19643;SDS011;9970;-36.854;174.870;2023-02-13T16:04:55;4.70;;;4.70;;
19643;SDS011;9970;-36.854;174.870;2023-02-13T16:07:28;4.60;;;4.60;;
19643;SDS011;9970;-36.854;174.870;2023-02-13T16:10:23;4.77;;;4.77;;
19643;SDS011;9970;-36.854;174.870;2023-02-13T16:12:50;4.90;;;4.90;;
19643;SDS011;9970;-36.854;174.870;2023-02-13T16:15:23;4.77;;;4.77;;
19643;SDS011;9970;-36.854;174.870;2023-02-13T16:17:58;5.00;;;5.00;;
19643;SDS011;9970;-36.854;174.870;2023-02-13T16:20:35;5.20;;;5.20;;
19643;SDS011;9970;-36.854;174.870;2023-02-13T16:23:13;5.00;;;5.00;;
19643;SDS011;9970;-36.854;174.870;2023-02-13T16:25:45;5.00;;;5.00;;
19643;SDS011;9970;-36.854;174.870;2023-02-13T16:28:20;4.90;;;4.90;;
19643;SDS011;9970;-36.854;174.870;2023-02-13T16:33:36;5.30;;;5.30;;
19643;SDS011;9970;-36.854;174.870;2023-02-13T16:38:46;5.00;;;5.00;;
19643;SDS011;9970;-36.854;174.870;2023-02-13T16:44:00;4.97;;;4.97;;
19643;SDS011;9970;-36.854;174.870;2023-02-13T16:46:38;4.70;;;4.70;;
19643;SDS011;9970;-36.854;174.870;2023-02-13T16:49:16;5.10;;;5.10;;
19643;SDS011;9970;-36.854;174.870;2023-02-13T16:51:59;5.00;;;5.00;;
19643;SDS011;9970;-36.854;174.870;2023-02-13T16:54:54;5.00;;;5.00;;
19643;SDS011;9970;-36.854;174.870;2023-02-13T16:57:32;5.17;;;5.17;;
19643;SDS011;9970;-36.854;174.870;2023-02-13T17:00:05;5.20;;;5.20;;
19643;SDS011;9970;-36.854;174.870;2023-02-13T17:02:51;5.30;;;5.30;;
19643;SDS011;9970;-36.854;174.870;2023-02-13T17:05:25;5.20;;;5.20;;
19643;SDS011;9970;-36.854;174.870;2023-02-13T17:07:58;5.00;;;5.00;;
19643;SDS011;9970;-36.854;174.870;2023-02-13T17:10:32;5.13;;;5.13;;
19643;SDS011;9970;-36.854;174.870;2023-02-13T17:13:15;5.10;;;5.10;;
19643;SDS011;9970;-36.854;174.870;2023-02-13T17:16:07;5.10;;;5.10;;
19643;SDS011;9970;-36.854;174.870;2023-02-13T17:18:28;5.07;;;5.07;;
19643;SDS011;9970;-36.854;174.870;2023-02-13T17:21:01;4.70;;;4.70;;
19643;SDS011;9970;-36.854;174.870;2023-02-13T17:23:35;4.80;;;4.80;;
19643;SDS011;9970;-36.854;174.870;2023-02-13T17:26:08;4.60;;;4.60;;
19643;SDS011;9970;-36.854;174.870;2023-02-13T17:28:41;4.47;;;4.47;;
19643;SDS011;9970;-36.854;174.870;2023-02-13T17:31:14;4.40;;;4.40;;
19643;SDS011;9970;-36.854;174.870;2023-02-13T17:33:47;4.70;;;4.70;;
19643;SDS011;9970;-36.854;174.870;2023-02-13T17:36:21;4.93;;;4.93;;
19643;SDS011;9970;-36.854;174.870;2023-02-13T17:38:54;4.90;;;4.90;;
19643;SDS011;9970;-36.854;174.870;2023-02-13T17:41:27;4.80;;;4.80;;
19643;SDS011;9970;-36.854;174.870;2023-02-13T17:44:00;4.73;;;4.73;;
19643;SDS011;9970;-36.854;174.870;2023-02-13T17:46:33;4.73;;;4.73;;
19643;SDS011;9970;-36.854;174.870;2023-02-13T17:49:06;4.80;;;4.80;;
19643;SDS011;9970;-36.854;174.870;2023-02-13T17:51:40;4.60;;;4.60;;
19643;SDS011;9970;-36.854;174.870;2023-02-13T17:54:13;4.60;;;4.60;;